Time;durP1;ratioP1;P1;durP2;ratioP2;P2;SDS_P1;SDS_P2;PMS_P1;PMS_P2;Temp;Humidity;BMP_temperature;BMP_pressure;BME280_temperature;BME280_humidity;BME280_pressure;Samples;Min_cycle;Max_cycle;Signal;HPM_P1;HPM_P2
2021/01/23 00:02:06;;;;;;;18.30;8.63;;;10.40;99.90;;;;;;4974294;28;20089;-76
2021/01/23 00:04:32;;;;;;;17.40;7.50;;;10.40;99.90;;;;;;4974068;28;20403;-76
2021/01/23 00:06:59;;;;;;;14.52;7.72;;;10.40;99.90;;;;;;4957012;28;20046;-76
2021/01/23 00:09:25;;;;;;;16.48;8.55;;;10.40;99.90;;;;;;4956742;28;20143;-76
2021/01/23 00:11:51;;;;;;;13.75;8.02;;;10.40;99.90;;;;;;4974061;28;20035;-76
2021/01/23 00:14:17;;;;;;;15.45;7.28;;;10.40;99.90;;;;;;4956865;28;20031;-76
2021/01/23 00:16:43;;;;;;;16.25;7.15;;;10.40;99.90;;;;;;4956939;28;20378;-76
2021/01/23 00:19:09;;;;;;;12.88;6.78;;;10.40;99.90;;;;;;4974074;28;20094;-76
2021/01/23 00:21:35;;;;;;;12.82;8.02;;;10.40;99.90;;;;;;4973962;28;20030;-76
2021/01/23 00:24:01;;;;;;;13.13;6.97;;;10.40;99.90;;;;;;4973882;28;20023;-76
2021/01/23 00:26:27;;;;;;;14.48;6.97;;;10.40;99.90;;;;;;4973836;28;20467;-76
2021/01/23 00:28:53;;;;;;;19.85;7.30;;;10.40;99.90;;;;;;4973822;28;20023;-76
2021/01/23 00:31:19;;;;;;;12.77;6.65;;;10.40;99.90;;;;;;4973877;28;20061;-76
2021/01/23 00:33:44;;;;;;;13.05;7.55;;;10.40;99.90;;;;;;4973683;28;20030;-77
2021/01/23 00:36:10;;;;;;;14.38;6.75;;;10.40;99.90;;;;;;4973782;28;20034;-76
2021/01/23 00:38:36;;;;;;;15.68;7.45;;;10.40;99.90;;;;;;4956465;28;20031;-77
2021/01/23 00:41:02;;;;;;;14.63;7.40;;;10.40;99.90;;;;;;4973746;28;20038;-77
2021/01/23 00:43:28;;;;;;;14.05;7.20;;;10.40;99.90;;;;;;4974000;28;20087;-77
2021/01/23 00:45:53;;;;;;;14.82;7.75;;;10.30;99.90;;;;;;4973474;28;20493;-77
2021/01/23 00:48:19;;;;;;;10.55;6.13;;;10.30;99.90;;;;;;4956060;28;20073;-77
2021/01/23 00:50:45;;;;;;;12.02;6.70;;;10.30;99.90;;;;;;4973007;28;20027;-77
2021/01/23 00:53:11;;;;;;;14.20;7.38;;;10.30;99.90;;;;;;4955907;28;20027;-77
2021/01/23 00:55:36;;;;;;;14.80;6.40;;;10.30;99.90;;;;;;4973490;28;20470;-77
2021/01/23 00:58:03;;;;;;;10.70;6.18;;;10.30;99.90;;;;;;4973241;28;20039;-77
2021/01/23 01:00:29;;;;;;;12.30;6.38;;;10.30;99.90;;;;;;4973307;28;20030;-77
2021/01/23 01:02:55;;;;;;;9.82;5.68;;;10.30;99.90;;;;;;4973085;28;20047;-77
2021/01/23 01:05:21;;;;;;;10.85;5.85;;;10.30;99.90;;;;;;4955924;28;20027;-77
2021/01/23 01:07:47;;;;;;;13.98;6.38;;;10.30;99.90;;;;;;4956048;28;20027;-75
2021/01/23 01:10:13;;;;;;;9.95;5.82;;;10.30;99.90;;;;;;4956105;28;20382;-76
2021/01/23 01:12:39;;;;;;;8.65;5.05;;;10.30;99.90;;;;;;4973066;28;20081;-76
2021/01/23 01:15:06;;;;;;;14.95;5.63;;;10.30;99.90;;;;;;4955687;28;20023;-76
2021/01/23 01:17:32;;;;;;;10.63;4.75;;;10.30;99.90;;;;;;4955717;28;20113;-76
2021/01/23 01:19:58;;;;;;;11.18;4.18;;;10.40;99.90;;;;;;4973040;28;20530;-76
2021/01/23 01:22:23;;;;;;;11.23;5.47;;;10.40;99.90;;;;;;4972856;28;20035;-76
2021/01/23 01:24:49;;;;;;;8.93;4.53;;;10.40;99.90;;;;;;4972989;28;20022;-76
2021/01/23 01:27:15;;;;;;;10.65;5.78;;;10.40;99.90;;;;;;4973206;28;20022;-76
2021/01/23 01:29:41;;;;;;;11.63;5.03;;;10.50;99.90;;;;;;4973170;28;20481;-76
2021/01/23 01:32:07;;;;;;;8.35;4.68;;;10.50;99.90;;;;;;4955569;28;20035;-76
2021/01/23 01:34:32;;;;;;;7.40;4.47;;;10.50;99.90;;;;;;4972851;28;20027;-76
2021/01/23 01:36:59;;;;;;;7.55;4.43;;;10.50;99.90;;;;;;4972889;28;20105;-76
2021/01/23 01:39:25;;;;;;;9.38;5.13;;;10.50;99.90;;;;;;4955548;28;20031;-76
2021/01/23 01:41:51;;;;;;;8.80;4.63;;;10.50;99.90;;;;;;4955293;28;20085;-76
2021/01/23 01:44:17;;;;;;;12.23;4.50;;;10.60;99.90;;;;;;4972834;28;20423;-76
2021/01/23 01:46:44;;;;;;;10.57;5.60;;;10.60;99.90;;;;;;4955482;28;20042;-76
2021/01/23 01:49:10;;;;;;;10.63;5.13;;;10.60;99.90;;;;;;4972810;28;20029;-75
2021/01/23 01:51:36;;;;;;;8.10;5.05;;;10.60;99.90;;;;;;4972681;28;20030;-75
2021/01/23 01:54:02;;;;;;;8.07;3.95;;;10.60;99.90;;;;;;4972642;28;20054;-76
2021/01/23 01:56:28;;;;;;;9.90;4.35;;;10.60;99.90;;;;;;4955339;28;20034;-76
2021/01/23 01:58:54;;;;;;;7.85;4.85;;;10.60;99.90;;;;;;4955359;28;20080;-76
2021/01/23 02:01:20;;;;;;;8.20;4.43;;;10.60;99.90;;;;;;4972462;28;20031;-76
2021/01/23 02:04:18;;;;;;;6.60;3.83;;;10.50;99.90;;;;;;4975367;28;20074;-76
2021/01/23 02:07:07;;;;;;;9.32;4.50;;;10.60;99.90;;;;;;4976499;28;20027;-76
2021/01/23 02:09:48;;;;;;;8.63;4.10;;;10.60;99.90;;;;;;4976422;28;20062;-76
2021/01/23 02:12:39;;;;;;;8.02;4.50;;;10.50;99.90;;;;;;4959007;28;20023;-76
2021/01/23 02:15:12;;;;;;;9.23;3.90;;;10.50;99.90;;;;;;4958860;28;20118;-76
2021/01/23 02:17:52;;;;;;;8.55;3.80;;;10.50;99.90;;;;;;4959314;28;20573;-76
2021/01/23 02:20:49;;;;;;;8.88;4.22;;;10.50;99.90;;;;;;4976239;28;20103;-76
2021/01/23 02:23:22;;;;;;;6.50;3.85;;;10.50;99.90;;;;;;4976399;28;20105;-76
2021/01/23 02:26:23;;;;;;;7.57;4.00;;;10.50;99.90;;;;;;4976066;28;20038;-76
2021/01/23 02:29:01;;;;;;;9.60;4.00;;;10.50;99.90;;;;;;4976365;28;20066;-76
2021/01/23 02:31:29;;;;;;;7.45;3.55;;;10.50;99.90;;;;;;4975908;28;20023;-76
2021/01/23 02:33:59;;;;;;;9.95;4.50;;;10.50;99.90;;;;;;4958533;28;20031;-76
2021/01/23 02:36:27;;;;;;;7.03;4.18;;;10.50;99.90;;;;;;4958555;28;20034;-76
2021/01/23 02:38:54;;;;;;;7.80;3.90;;;10.50;99.90;;;;;;4958542;28;20027;-76
2021/01/23 02:41:20;;;;;;;6.65;3.50;;;10.50;99.90;;;;;;4958405;28;20033;-76
2021/01/23 02:43:46;;;;;;;8.05;4.40;;;10.50;99.90;;;;;;4975734;28;20026;-76
2021/01/23 02:46:17;;;;;;;11.13;4.05;;;10.50;99.90;;;;;;4958394;28;20077;-76
2021/01/23 02:48:43;;;;;;;7.90;3.80;;;10.50;99.90;;;;;;4975733;28;20025;-76
2021/01/23 02:51:18;;;;;;;7.78;4.00;;;10.50;99.90;;;;;;4958277;28;20035;-76
2021/01/23 02:53:47;;;;;;;7.93;3.90;;;10.50;99.90;;;;;;4975509;28;20034;-76
2021/01/23 02:56:18;;;;;;;9.90;4.68;;;10.50;99.90;;;;;;4975500;28;20027;-76
2021/01/23 02:58:43;;;;;;;;;;;10.50;99.90;;;;;;4958633;28;20050;-76
2021/01/23 03:01:10;;;;;;;10.10;3.88;;;10.50;99.90;;;;;;4958100;28;19957;-76
2021/01/23 03:03:36;;;;;;;6.93;3.55;;;10.50;99.90;;;;;;4958022;28;20471;-76
2021/01/23 03:06:06;;;;;;;11.52;4.43;;;10.50;99.90;;;;;;4958091;28;20023;-76
2021/01/23 03:08:32;;;;;;;11.13;4.50;;;10.50;99.90;;;;;;4975324;28;20023;-76
2021/01/23 03:10:58;;;;;;;7.45;3.83;;;10.50;99.90;;;;;;4975269;28;20537;-76
2021/01/23 03:13:24;;;;;;;9.65;4.65;;;10.40;99.90;;;;;;4958166;28;20035;-76
2021/01/23 03:15:50;;;;;;;10.05;4.20;;;10.50;99.90;;;;;;4974575;28;20478;-76
2021/01/23 03:18:16;;;;;;;6.68;3.40;;;10.50;99.90;;;;;;4957825;28;20031;-76
2021/01/23 03:20:42;;;;;;;6.00;3.25;;;10.50;99.90;;;;;;4957632;28;20437;-76
2021/01/23 03:23:08;;;;;;;13.43;3.95;;;10.50;99.90;;;;;;4974970;28;20023;-76
2021/01/23 03:25:34;;;;;;;7.82;3.42;;;10.50;99.90;;;;;;4975115;28;20023;-76
2021/01/23 03:28:00;;;;;;;5.75;3.55;;;10.50;99.90;;;;;;4975414;28;20026;-76
2021/01/23 03:30:29;;;;;;;6.35;3.50;;;10.50;99.90;;;;;;4975332;28;20337;-76
2021/01/23 03:32:55;;;;;;;8.85;3.42;;;10.50;99.90;;;;;;4974978;28;20034;-76
2021/01/23 03:35:21;;;;;;;5.88;3.50;;;10.60;99.90;;;;;;4957723;28;20027;-76
2021/01/23 03:37:47;;;;;;;5.30;3.00;;;10.50;99.90;;;;;;4975020;28;20033;-76
2021/01/23 03:40:14;;;;;;;6.95;3.50;;;10.60;99.90;;;;;;4974923;28;20553;-76
2021/01/23 03:42:39;;;;;;;7.38;3.08;;;10.60;99.90;;;;;;4974937;28;20035;-76
2021/01/23 03:45:07;;;;;;;7.97;3.92;;;10.60;99.90;;;;;;4957212;28;20019;-76
2021/01/23 03:47:33;;;;;;;6.93;3.22;;;10.70;99.90;;;;;;4974611;28;20497;-76
2021/01/23 03:49:59;;;;;;;15.20;4.22;;;10.70;99.80;;;;;;4974597;28;20027;-76
2021/01/23 03:52:25;;;;;;;10.35;3.83;;;10.70;99.90;;;;;;4974477;28;20034;-76
2021/01/23 03:54:50;;;;;;;7.47;2.90;;;10.70;99.90;;;;;;4957056;28;20114;-76
2021/01/23 03:57:16;;;;;;;6.75;3.10;;;10.70;99.90;;;;;;4956902;28;20082;-76
2021/01/23 03:59:42;;;;;;;5.90;3.40;;;10.70;99.60;;;;;;4957180;28;20034;-76
2021/01/23 04:02:08;;;;;;;6.40;2.92;;;10.70;99.30;;;;;;4956869;28;20397;-76
2021/01/23 04:04:34;;;;;;;4.25;2.72;;;10.70;99.20;;;;;;4974183;28;20057;-76
2021/01/23 04:06:59;;;;;;;8.07;3.40;;;10.80;99.10;;;;;;4974087;28;20022;-76
2021/01/23 04:09:26;;;;;;;6.13;3.10;;;10.80;98.90;;;;;;4956884;28;20023;-76
2021/01/23 04:11:52;;;;;;;6.07;2.78;;;10.80;99.40;;;;;;4974174;28;20064;-76
2021/01/23 04:14:18;;;;;;;6.28;2.83;;;10.80;98.90;;;;;;4956820;28;20089;-75
2021/01/23 04:16:47;;;;;;;5.70;2.58;;;10.80;99.20;;;;;;4974024;28;20363;-76
2021/01/23 04:19:14;;;;;;;7.75;2.80;;;10.80;98.70;;;;;;4973985;28;20105;-76
2021/01/23 04:21:40;;;;;;;4.63;2.63;;;10.80;98.40;;;;;;4973900;28;20033;-76
2021/01/23 04:24:06;;;;;;;4.95;2.80;;;10.80;98.60;;;;;;4974017;28;20029;-75
2021/01/23 04:26:32;;;;;;;5.63;3.00;;;10.80;98.70;;;;;;4971726;28;20475;-76
2021/01/23 04:28:58;;;;;;;5.85;3.20;;;10.80;98.80;;;;;;4973815;28;20438;-75
2021/01/23 04:31:24;;;;;;;5.90;3.38;;;10.80;98.80;;;;;;4973924;28;20030;-76
2021/01/23 04:33:50;;;;;;;9.43;3.75;;;10.80;99.00;;;;;;4973694;28;20077;-76
2021/01/23 04:36:15;;;;;;;12.75;7.10;;;10.70;99.50;;;;;;4973824;28;20387;-76
2021/01/23 04:38:41;;;;;;;20.42;8.77;;;10.60;99.90;;;;;;4973978;28;20109;-76
2021/01/23 04:41:07;;;;;;;21.67;9.70;;;10.50;99.90;;;;;;4973714;28;20023;-76
2021/01/23 04:43:33;;;;;;;17.45;9.27;;;10.50;99.90;;;;;;4973594;28;20027;-76
2021/01/23 04:45:59;;;;;;;23.90;9.32;;;10.40;99.90;;;;;;4956297;28;20027;-76
2021/01/23 04:48:25;;;;;;;15.00;7.57;;;10.30;99.90;;;;;;4973506;28;20364;-76
2021/01/23 04:50:51;;;;;;;18.60;7.97;;;10.30;99.90;;;;;;4956113;28;20073;-76
2021/01/23 04:53:17;;;;;;;11.10;6.35;;;10.20;99.90;;;;;;4973356;28;20426;-76
2021/01/23 04:55:43;;;;;;;14.15;4.93;;;10.20;99.90;;;;;;4956129;28;20054;-76
2021/01/23 04:58:10;;;;;;;11.52;4.65;;;10.20;99.90;;;;;;4973500;28;20058;-76
2021/01/23 05:00:36;;;;;;;8.52;4.40;;;10.20;99.90;;;;;;4973297;28;20027;-76
2021/01/23 05:03:03;;;;;;;7.97;4.35;;;10.30;99.90;;;;;;4955718;28;20047;-76
2021/01/23 05:05:29;;;;;;;7.57;4.00;;;10.40;99.90;;;;;;4973275;28;20466;-76
2021/01/23 05:08:13;;;;;;;42.70;6.55;;;10.50;99.90;;;;;;4956075;28;20026;-76
2021/01/23 05:10:40;;;;;;;12.82;6.07;;;10.50;99.90;;;;;;4955871;28;20510;-76
2021/01/23 05:13:18;;;;;;;16.35;6.45;;;10.50;99.90;;;;;;4955864;28;20030;-77
2021/01/23 05:15:45;;;;;;;11.80;4.72;;;10.60;99.90;;;;;;4972982;28;20053;-77
2021/01/23 05:18:15;;;;;;;13.73;5.35;;;10.60;99.90;;;;;;4973102;28;20371;-77
2021/01/23 05:20:45;;;;;;;6.60;3.53;;;10.60;99.90;;;;;;4973303;28;20019;-77
2021/01/23 05:23:13;;;;;;;6.07;3.43;;;10.60;99.60;;;;;;4973029;28;20015;-77
2021/01/23 05:25:40;;;;;;;8.05;3.70;;;10.60;99.80;;;;;;4973050;28;20553;-77
2021/01/23 05:28:09;;;;;;;10.00;4.10;;;10.60;99.90;;;;;;4972867;28;20407;-77
2021/01/23 05:30:50;;;;;;;10.10;4.15;;;10.50;99.90;;;;;;4955681;28;20026;-77
2021/01/23 05:33:23;;;;;;;8.43;4.25;;;10.50;99.90;;;;;;4955982;28;20023;-77
2021/01/23 05:36:01;;;;;;;14.60;4.75;;;10.50;99.90;;;;;;4972904;28;20019;-77
2021/01/23 05:38:28;;;;;;;9.57;4.30;;;10.50;99.90;;;;;;4975410;28;20027;-77
2021/01/23 05:41:14;;;;;;;11.48;5.20;;;10.50;99.90;;;;;;4959521;28;20379;-77
2021/01/23 05:43:48;;;;;;;10.27;4.97;;;10.40;99.90;;;;;;4976972;28;20027;-77
2021/01/23 05:46:15;;;;;;;10.15;5.13;;;10.40;99.90;;;;;;4959905;28;20090;-77
2021/01/23 05:48:44;;;;;;;13.13;5.40;;;10.40;99.90;;;;;;4975887;28;20531;-77
2021/01/23 05:51:11;;;;;;;12.75;5.10;;;10.40;99.90;;;;;;4976666;28;20039;-77
2021/01/23 05:53:37;;;;;;;13.63;6.05;;;10.30;99.90;;;;;;4959492;28;20031;-77
2021/01/23 05:56:04;;;;;;;17.10;7.35;;;10.30;99.90;;;;;;4976851;28;20050;-77
2021/01/23 05:58:31;;;;;;;42.17;8.38;;;10.30;99.90;;;;;;4976858;28;20364;-76
2021/01/23 06:00:59;;;;;;;9.70;5.20;;;10.30;99.90;;;;;;4959161;28;20035;-76
2021/01/23 06:03:39;;;;;;;14.43;6.28;;;10.20;99.90;;;;;;4959159;28;20047;-76
2021/01/23 06:06:05;;;;;;;12.45;5.70;;;10.20;99.90;;;;;;4959232;28;20137;-76
2021/01/23 06:08:39;;;;;;;10.32;5.63;;;10.20;99.90;;;;;;4976470;28;20058;-76
2021/01/23 06:11:18;;;;;;;19.65;9.25;;;10.20;99.90;;;;;;4976842;28;20087;-76
2021/01/23 06:13:56;;;;;;;22.40;11.13;;;10.10;99.90;;;;;;4976354;28;20506;-76
2021/01/23 06:16:37;;;;;;;38.42;18.23;;;10.10;99.90;;;;;;4976477;28;20045;-76
2021/01/23 06:19:05;;;;;;;30.73;14.07;;;10.10;99.90;;;;;;4976282;28;20034;-76
2021/01/23 06:21:43;;;;;;;19.67;9.98;;;10.10;99.90;;;;;;4976184;28;20095;-76
2021/01/23 06:24:10;;;;;;;14.05;7.20;;;10.00;99.90;;;;;;4958735;28;20437;-76
2021/01/23 06:26:54;;;;;;;19.33;7.68;;;10.00;99.90;;;;;;4976115;28;20073;-76
2021/01/23 06:29:43;;;;;;;14.18;7.90;;;10.00;99.90;;;;;;4976038;28;20090;-76
2021/01/23 06:32:14;;;;;;;15.90;7.32;;;10.00;99.90;;;;;;4976065;28;20027;-76
2021/01/23 06:35:00;;;;;;;12.57;7.82;;;10.00;99.90;;;;;;4958649;28;20419;-76
2021/01/23 06:37:39;;;;;;;16.98;7.95;;;10.00;99.90;;;;;;4975865;28;20034;-76
2021/01/23 06:40:05;;;;;;;15.88;7.50;;;10.00;99.90;;;;;;4975911;28;20095;-76
2021/01/23 06:42:33;;;;;;;13.10;8.30;;;9.90;99.90;;;;;;4975773;28;20027;-76
2021/01/23 06:45:17;;;;;;;15.15;7.18;;;10.00;99.90;;;;;;4975777;28;20023;-76
2021/01/23 06:47:48;;;;;;;15.43;7.95;;;10.00;99.90;;;;;;4958624;28;20023;-76
2021/01/23 06:50:29;;;;;;;13.55;7.55;;;10.00;99.90;;;;;;4974597;28;20363;-76
2021/01/23 06:52:55;;;;;;;12.75;6.78;;;10.00;99.90;;;;;;4958586;28;20031;-76
2021/01/23 07:07:14;;;;;;;16.15;7.18;;;10.00;99.90;;;;;;5024781;27;20455;-75
2021/01/23 07:09:50;;;;;;;18.70;7.80;;;10.30;99.90;;;;;;5094133;28;20537;-76
2021/01/23 07:12:35;;;;;;;16.50;7.82;;;10.30;99.90;;;;;;5025685;28;20026;-76
2021/01/23 07:15:24;;;;;;;14.63;7.32;;;10.30;99.90;;;;;;5025736;28;20061;-77
2021/01/23 07:17:50;;;;;;;22.30;9.55;;;10.20;99.90;;;;;;5025477;28;20036;-76
2021/01/23 07:20:17;;;;;;;17.58;8.60;;;10.20;99.90;;;;;;5025634;28;20038;-76
2021/01/23 07:22:45;;;;;;;22.50;10.50;;;10.20;99.90;;;;;;5025657;28;20470;-76
2021/01/23 07:25:13;;;;;;;24.55;11.25;;;10.20;99.90;;;;;;5025598;28;20036;-77
2021/01/23 07:27:39;;;;;;;28.85;12.02;;;10.10;99.90;;;;;;5025463;28;20026;-76
2021/01/23 07:30:16;;;;;;;22.73;10.50;;;10.10;99.90;;;;;;5025353;28;20544;-77
2021/01/23 07:32:43;;;;;;;16.63;10.40;;;10.20;99.90;;;;;;5025300;28;20040;-77
2021/01/23 07:35:11;;;;;;;25.63;11.52;;;10.10;99.90;;;;;;5093636;28;20059;-76
2021/01/23 07:37:54;;;;;;;20.73;9.43;;;10.10;99.90;;;;;;5025377;28;20018;-76
2021/01/23 07:40:21;;;;;;;18.73;9.05;;;10.10;99.90;;;;;;5025284;28;20026;-77
2021/01/23 07:42:47;;;;;;;16.23;9.43;;;10.10;99.90;;;;;;5093783;28;20113;-77
2021/01/23 07:45:15;;;;;;;17.83;10.00;;;10.10;99.90;;;;;;5025087;28;20030;-76
2021/01/23 07:47:41;;;;;;;28.92;11.85;;;10.10;99.90;;;;;;5025172;28;20026;-76
2021/01/23 07:50:09;;;;;;;20.10;12.82;;;10.20;99.90;;;;;;5025087;28;20026;-76
2021/01/23 07:52:36;;;;;;;29.13;14.75;;;10.10;99.90;;;;;;5093512;28;20033;-76
2021/01/23 07:55:04;;;;;;;31.92;13.98;;;10.10;99.90;;;;;;5093172;28;20392;-76
2021/01/23 07:57:29;;;;;;;21.60;12.35;;;10.10;99.90;;;;;;5093314;28;20048;-76
2021/01/23 07:59:55;;;;;;;23.88;13.48;;;10.20;99.90;;;;;;5024790;28;20551;-76
2021/01/23 08:02:21;;;;;;;24.77;13.15;;;10.20;99.90;;;;;;5024847;28;20028;-76
2021/01/23 08:04:52;;;;;;;26.10;14.30;;;10.20;99.90;;;;;;5024560;28;20468;-77
2021/01/23 08:07:32;;;;;;;44.03;15.07;;;10.20;99.90;;;;;;5016351;28;20045;-75
2021/01/23 08:10:20;;;;;;;27.52;12.18;;;10.20;99.90;;;;;;5011775;28;20030;-76
2021/01/23 08:12:52;;;;;;;23.33;12.60;;;10.20;99.90;;;;;;5011675;28;20030;-76
2021/01/23 08:15:27;;;;;;;26.30;14.27;;;10.30;99.90;;;;;;5011349;28;20030;-76
2021/01/23 08:17:54;;;;;;;30.08;13.85;;;10.30;99.90;;;;;;5011427;28;20094;-76
2021/01/23 08:20:36;;;;;;;34.70;14.88;;;10.30;99.90;;;;;;5011372;28;20354;-76
2021/01/23 08:23:12;;;;;;;29.15;11.60;;;10.40;99.90;;;;;;5011479;28;20097;-76
2021/01/23 08:25:45;;;;;;;20.52;9.15;;;10.40;99.90;;;;;;5011375;28;20380;-76
2021/01/23 08:28:12;;;;;;;20.42;9.63;;;10.40;99.70;;;;;;5079229;28;20048;-76
2021/01/23 08:30:38;;;;;;;24.17;11.52;;;10.40;99.90;;;;;;5011361;28;20026;-76
2021/01/23 08:33:09;;;;;;;28.73;14.10;;;10.40;99.90;;;;;;5011239;28;20427;-76
2021/01/23 08:35:42;;;;;;;23.00;11.38;;;10.40;99.90;;;;;;5010984;28;20486;-76
2021/01/23 08:38:09;;;;;;;30.95;12.27;;;10.40;99.90;;;;;;5011096;28;20079;-76
2021/01/23 08:40:35;;;;;;;18.60;9.57;;;10.50;99.90;;;;;;5078936;28;20507;-76
2021/01/23 08:43:01;;;;;;;15.90;8.77;;;10.40;99.90;;;;;;5011180;28;20022;-76
2021/01/23 08:45:27;;;;;;;23.65;8.93;;;10.50;99.60;;;;;;5010849;28;20029;-76
2021/01/23 08:47:54;;;;;;;20.52;9.23;;;10.50;99.50;;;;;;5011016;28;20036;-76
2021/01/23 08:50:19;;;;;;;33.97;10.00;;;10.50;99.40;;;;;;5010947;28;20022;-76
2021/01/23 08:52:45;;;;;;;21.02;8.93;;;10.50;99.60;;;;;;5078857;28;20125;-76
2021/01/23 08:55:11;;;;;;;31.45;7.03;;;10.50;99.50;;;;;;5010954;28;20030;-76
2021/01/23 08:57:38;;;;;;;15.75;7.25;;;10.50;99.80;;;;;;5010958;28;20041;-76
2021/01/23 09:00:06;;;;;;;16.40;7.53;;;10.60;99.50;;;;;;5010847;28;20026;-76
2021/01/23 09:02:32;;;;;;;24.05;8.65;;;10.60;99.90;;;;;;5078685;28;20033;-76
2021/01/23 09:04:58;;;;;;;16.73;6.93;;;10.50;99.40;;;;;;5010491;28;20046;-76
2021/01/23 09:07:23;;;;;;;21.52;7.60;;;10.60;99.20;;;;;;5010698;28;20145;-76
2021/01/23 09:09:50;;;;;;;15.75;7.35;;;10.60;99.20;;;;;;5010813;28;20033;-76
2021/01/23 09:12:16;;;;;;;17.38;8.20;;;10.60;99.60;;;;;;5010841;28;20033;-76
2021/01/23 09:14:42;;;;;;;23.92;8.48;;;10.50;99.40;;;;;;5010741;28;20038;-76
2021/01/23 09:17:08;;;;;;;24.52;10.25;;;10.60;99.40;;;;;;5011034;28;20014;-76
2021/01/23 09:19:34;;;;;;;16.02;8.10;;;10.60;99.40;;;;;;5009486;28;20026;-76
2021/01/23 09:22:00;;;;;;;17.55;8.95;;;10.60;99.50;;;;;;5010574;28;20036;-76
2021/01/23 09:24:26;;;;;;;29.55;11.90;;;10.60;99.90;;;;;;5010335;28;20067;-76
2021/01/23 09:26:52;;;;;;;21.73;11.90;;;10.60;99.70;;;;;;5078134;28;20068;-76
2021/01/23 09:29:18;;;;;;;26.20;13.18;;;10.60;99.40;;;;;;5010680;28;20033;-76
2021/01/23 09:31:44;;;;;;;32.00;13.77;;;10.60;99.40;;;;;;5112118;27;20037;-76
2021/01/23 09:34:11;;;;;;;30.45;13.45;;;10.60;99.70;;;;;;5010385;28;20480;-76
2021/01/23 09:36:37;;;;;;;27.70;14.35;;;10.60;99.90;;;;;;5010205;28;20026;-76
2021/01/23 09:39:03;;;;;;;26.60;12.98;;;10.60;99.70;;;;;;5010290;28;20030;-76
2021/01/23 09:41:29;;;;;;;55.17;15.35;;;10.60;99.50;;;;;;5010056;28;20026;-76
2021/01/23 09:43:55;;;;;;;25.83;12.65;;;10.60;99.90;;;;;;5010122;28;20026;-76
2021/01/23 09:46:21;;;;;;;34.67;13.35;;;10.60;99.90;;;;;;5010115;28;20026;-76
2021/01/23 09:48:47;;;;;;;33.97;16.60;;;10.60;99.90;;;;;;5010037;28;20388;-76
2021/01/23 09:51:13;;;;;;;33.13;15.27;;;10.60;99.90;;;;;;5009970;28;20539;-76
2021/01/23 09:53:39;;;;;;;32.42;15.98;;;10.60;99.90;;;;;;5077754;28;20155;-76
2021/01/23 09:56:06;;;;;;;28.25;13.90;;;10.60;99.90;;;;;;5010020;28;20406;-76
2021/01/23 09:58:32;;;;;;;27.67;12.05;;;10.60;99.90;;;;;;5077741;28;20025;-76
2021/01/23 10:00:57;;;;;;;27.10;13.32;;;10.60;99.90;;;;;;5009898;28;20415;-76
2021/01/23 10:03:23;;;;;;;21.40;13.38;;;10.60;99.90;;;;;;5111755;27;20038;-76
2021/01/23 10:05:50;;;;;;;26.17;12.18;;;10.60;99.90;;;;;;5009769;28;20139;-76
2021/01/23 10:08:15;;;;;;;26.30;15.05;;;10.60;99.90;;;;;;5010243;28;20454;-76
2021/01/23 10:10:41;;;;;;;23.70;13.80;;;10.60;99.90;;;;;;5010006;28;20160;-76
2021/01/23 10:13:07;;;;;;;25.83;14.38;;;10.70;99.90;;;;;;5009800;28;20157;-76
2021/01/23 10:15:33;;;;;;;30.92;16.73;;;10.70;99.90;;;;;;5111414;27;20041;-76
2021/01/23 10:18:03;;;;;;;33.78;15.68;;;10.70;99.90;;;;;;5009687;28;20488;-76
2021/01/23 10:20:28;;;;;;;34.70;16.02;;;10.70;99.90;;;;;;5009717;28;20056;-76
2021/01/23 10:22:54;;;;;;;29.33;13.88;;;10.70;99.90;;;;;;5009645;28;20018;-76
2021/01/23 10:25:21;;;;;;;26.60;13.15;;;10.70;99.90;;;;;;5009307;28;20542;-76
2021/01/23 10:27:47;;;;;;;46.30;15.43;;;10.80;99.90;;;;;;5009627;28;20397;-76
2021/01/23 10:30:13;;;;;;;30.90;13.93;;;10.80;99.90;;;;;;5009413;28;20032;-76
2021/01/23 10:32:39;;;;;;;81.93;17.90;;;10.80;99.90;;;;;;5077001;28;20029;-76
2021/01/23 10:35:06;;;;;;;25.55;12.80;;;10.90;99.90;;;;;;5009437;28;20018;-76
2021/01/23 10:37:32;;;;;;;38.88;14.52;;;10.90;99.90;;;;;;5077094;28;20079;-74
2021/01/23 10:39:58;;;;;;;39.53;16.05;;;11.00;99.90;;;;;;5009268;28;20026;-75
2021/01/23 10:42:24;;;;;;;25.13;11.98;;;11.00;99.90;;;;;;5076995;28;20051;-76
2021/01/23 10:44:49;;;;;;;30.65;12.73;;;11.00;99.80;;;;;;5009637;28;20026;-76
2021/01/23 10:47:15;;;;;;;21.20;11.65;;;11.10;99.70;;;;;;5009223;28;20033;-76
2021/01/23 10:49:43;;;;;;;21.25;10.85;;;11.10;99.90;;;;;;5009188;28;20022;-76
2021/01/23 10:52:09;;;;;;;19.83;12.02;;;11.20;99.70;;;;;;5076911;28;20026;-76
2021/01/23 10:54:35;;;;;;;28.80;13.20;;;11.20;98.80;;;;;;5008914;28;20033;-76
2021/01/23 10:57:02;;;;;;;32.05;12.40;;;11.30;99.30;;;;;;5076745;28;20022;-76
2021/01/23 10:59:29;;;;;;;25.27;12.52;;;11.40;99.00;;;;;;5009130;28;20046;-76
2021/01/23 11:01:54;;;;;;;23.40;11.10;;;11.40;99.00;;;;;;5077127;28;20437;-76
2021/01/23 11:04:20;;;;;;;25.55;12.07;;;11.50;99.30;;;;;;5076636;28;20053;-76
2021/01/23 11:06:46;;;;;;;22.65;11.25;;;11.50;99.40;;;;;;5110489;28;20049;-76
2021/01/23 11:09:12;;;;;;;28.60;11.73;;;11.60;98.80;;;;;;5008862;28;20357;-76
2021/01/23 11:11:38;;;;;;;22.13;12.25;;;11.60;99.10;;;;;;5009068;28;20034;-76
2021/01/23 11:14:04;;;;;;;21.73;11.55;;;11.70;98.90;;;;;;5008991;28;20033;-75
2021/01/23 11:16:30;;;;;;;26.63;14.07;;;11.70;98.40;;;;;;5009235;28;20312;-75
2021/01/23 11:18:56;;;;;;;27.23;14.35;;;11.70;98.60;;;;;;5008938;28;20472;-75
2021/01/23 11:21:22;;;;;;;27.00;14.15;;;11.80;98.50;;;;;;5008849;28;20030;-76
2021/01/23 11:23:48;;;;;;;30.88;15.02;;;11.90;97.70;;;;;;5110733;28;20361;-75
2021/01/23 11:26:14;;;;;;;23.00;10.73;;;11.90;98.40;;;;;;5076596;28;20506;-75
2021/01/23 11:28:40;;;;;;;22.30;11.27;;;11.90;97.70;;;;;;5008584;28;20382;-75
2021/01/23 11:31:09;;;;;;;22.90;12.07;;;12.00;97.00;;;;;;5008696;28;20170;-75
2021/01/23 11:33:35;;;;;;;27.98;13.70;;;12.10;96.30;;;;;;5076321;28;20117;-75
2021/01/23 11:36:02;;;;;;;21.95;10.98;;;12.10;97.00;;;;;;5008623;28;20039;-75
2021/01/23 11:38:28;;;;;;;21.50;12.02;;;12.10;97.40;;;;;;5008581;28;20101;-75
2021/01/23 11:40:54;;;;;;;23.70;10.55;;;12.20;97.30;;;;;;5110195;28;20058;-76
2021/01/23 11:43:20;;;;;;;15.43;9.77;;;12.20;97.40;;;;;;5011682;28;20468;-76
2021/01/23 11:45:46;;;;;;;24.60;13.70;;;12.30;97.00;;;;;;5012011;28;20034;-75
2021/01/23 11:48:12;;;;;;;19.85;11.77;;;12.30;97.70;;;;;;5011939;28;20026;-76
2021/01/23 11:50:38;;;;;;;24.27;11.10;;;12.30;98.00;;;;;;5079809;28;20389;-75
2021/01/23 11:53:05;;;;;;;19.50;10.80;;;12.30;97.80;;;;;;5011888;28;20413;-75
2021/01/23 11:55:31;;;;;;;34.47;12.27;;;12.30;97.50;;;;;;5011763;28;20076;-76
2021/01/23 11:57:57;;;;;;;24.30;12.02;;;12.30;97.00;;;;;;5011893;28;20464;-75
2021/01/23 12:00:23;;;;;;;19.17;10.85;;;12.30;97.50;;;;;;5011631;28;20028;-76
2021/01/23 12:02:49;;;;;;;18.10;9.77;;;12.20;97.50;;;;;;5011724;28;20023;-75
2021/01/23 12:05:19;;;;;;;19.17;8.82;;;12.30;96.60;;;;;;5011380;28;20057;-75
2021/01/23 12:07:47;;;;;;;14.88;9.35;;;12.20;97.10;;;;;;5011652;28;20104;-75
2021/01/23 12:10:16;;;;;;;17.63;10.13;;;12.30;96.60;;;;;;5011577;28;20022;-76
2021/01/23 12:12:43;;;;;;;22.75;10.73;;;12.30;96.50;;;;;;5011582;28;20030;-76
2021/01/23 12:15:09;;;;;;;21.48;10.18;;;12.30;96.70;;;;;;5011580;28;20029;-75
2021/01/23 12:17:36;;;;;;;18.73;8.85;;;12.30;96.50;;;;;;5011360;28;20063;-75
2021/01/23 12:20:03;;;;;;;19.75;9.30;;;12.30;96.00;;;;;;5011504;28;20396;-76
2021/01/23 12:22:29;;;;;;;18.92;8.65;;;12.30;95.90;;;;;;5011444;28;20079;-76
2021/01/23 12:24:57;;;;;;;16.30;7.82;;;12.40;96.50;;;;;;5079410;28;20029;-76
2021/01/23 12:27:22;;;;;;;21.77;10.60;;;12.40;96.20;;;;;;5011392;28;20037;-76
2021/01/23 12:29:48;;;;;;;22.50;8.85;;;12.40;96.40;;;;;;5011053;28;20029;-76
2021/01/23 12:32:14;;;;;;;20.35;9.50;;;12.50;96.10;;;;;;5079508;28;20025;-76
2021/01/23 12:34:40;;;;;;;16.80;8.35;;;12.40;96.20;;;;;;5011051;28;20390;-75
2021/01/23 12:37:06;;;;;;;15.30;9.05;;;12.50;96.00;;;;;;5011249;28;20097;-75
2021/01/23 12:39:31;;;;;;;21.65;8.95;;;12.50;95.80;;;;;;5011157;28;20025;-75
2021/01/23 12:41:57;;;;;;;18.55;9.68;;;12.50;95.10;;;;;;5011149;28;20100;-75
2021/01/23 12:44:24;;;;;;;20.83;9.88;;;12.50;95.10;;;;;;5011033;28;20029;-75
2021/01/23 12:46:52;;;;;;;22.25;11.48;;;12.40;95.60;;;;;;5011058;28;20033;-75
2021/01/23 12:49:18;;;;;;;18.50;9.90;;;12.40;95.40;;;;;;5078872;28;20034;-76
2021/01/23 12:51:44;;;;;;;18.48;9.48;;;12.40;94.90;;;;;;5010982;28;20030;-75
2021/01/23 12:54:10;;;;;;;20.08;10.57;;;12.40;95.20;;;;;;5011173;28;20037;-75